Time;durP1;ratioP1;P1;durP2;ratioP2;P2;SDS_P1;SDS_P2;PMS_P1;PMS_P2;Temp;Humidity;BMP_temperature;BMP_pressure;BME280_temperature;BME280_humidity;BME280_pressure;Samples;Min_cycle;Max_cycle;Signal;HPM_P1;HPM_P2
2021/01/03 00:00:24;;;;;;;13.07;4.82;;;12.90;99.90;;;;;;4991829;28;20058;-65
2021/01/03 00:02:53;;;;;;;13.13;3.75;;;12.90;99.90;;;;;;4992614;28;20057;-65
2021/01/03 00:05:29;;;;;;;14.05;3.50;;;12.90;99.90;;;;;;4992052;28;20057;-65
2021/01/03 00:07:58;;;;;;;16.98;4.25;;;12.80;99.90;;;;;;4992342;28;20054;-64
2021/01/03 00:10:26;;;;;;;14.35;4.18;;;12.80;99.90;;;;;;4992414;28;20073;-65
2021/01/03 00:12:54;;;;;;;11.93;3.63;;;12.90;99.90;;;;;;4992382;28;20065;-65
2021/01/03 00:15:24;;;;;;;12.50;4.35;;;12.80;99.90;;;;;;4990671;28;20529;-64
2021/01/03 00:17:52;;;;;;;16.50;4.60;;;12.90;99.90;;;;;;4992136;28;20059;-65
2021/01/03 00:20:27;;;;;;;9.70;4.25;;;12.90;99.90;;;;;;4992053;28;20111;-64
2021/01/03 00:22:56;;;;;;;10.45;3.90;;;12.90;99.90;;;;;;4992270;28;20058;-65
2021/01/03 00:25:26;;;;;;;17.65;5.00;;;12.90;99.90;;;;;;4996046;28;20088;-65
2021/01/03 00:27:54;;;;;;;16.10;5.35;;;12.90;99.90;;;;;;5002242;28;20050;-65
2021/01/03 00:30:25;;;;;;;25.35;10.23;;;12.90;99.90;;;;;;4992071;28;20138;-65
2021/01/03 00:32:53;;;;;;;37.13;20.55;;;12.80;99.90;;;;;;4992326;28;20097;-65
2021/01/03 00:35:30;;;;;;;38.10;22.27;;;12.80;99.90;;;;;;5006496;28;20046;-65
2021/01/03 00:38:05;;;;;;;37.28;22.67;;;12.80;99.90;;;;;;4991383;28;20127;-65
2021/01/03 00:40:33;;;;;;;31.73;17.95;;;12.80;99.90;;;;;;4991613;28;20503;-65
2021/01/03 00:43:01;;;;;;;26.48;10.50;;;12.80;99.90;;;;;;4991594;28;20054;-65
2021/01/03 00:45:29;;;;;;;21.00;10.52;;;12.80;99.90;;;;;;4990318;28;20046;-65
2021/01/03 00:47:58;;;;;;;21.02;8.77;;;12.80;99.90;;;;;;4991966;28;20491;-65
2021/01/03 00:50:26;;;;;;;41.42;15.10;;;12.80;99.90;;;;;;4991775;28;20084;-65
2021/01/03 00:52:55;;;;;;;22.80;9.27;;;12.80;99.90;;;;;;4997568;28;20051;-65
2021/01/03 00:55:23;;;;;;;20.73;5.55;;;12.80;99.90;;;;;;4998530;28;20058;-65
2021/01/03 00:57:51;;;;;;;15.98;5.57;;;12.80;99.90;;;;;;5010383;28;20141;-65
2021/01/03 01:00:27;;;;;;;22.55;6.38;;;12.80;99.90;;;;;;5011030;28;20065;-66
2021/01/03 01:02:55;;;;;;;20.95;5.30;;;12.80;99.90;;;;;;5010107;28;20418;-65
2021/01/03 01:05:23;;;;;;;33.40;17.88;;;12.80;99.90;;;;;;5009466;28;20058;-65
2021/01/03 01:07:52;;;;;;;34.92;25.05;;;12.80;99.90;;;;;;5010992;28;20057;-65
2021/01/03 01:10:24;;;;;;;31.38;12.15;;;12.80;99.90;;;;;;5009685;28;20046;-65
2021/01/03 01:12:53;;;;;;;23.13;12.90;;;12.80;99.90;;;;;;5011037;28;20061;-65
2021/01/03 01:15:24;;;;;;;29.63;11.23;;;12.80;99.90;;;;;;5010500;28;20042;-65
2021/01/03 01:17:54;;;;;;;26.50;11.35;;;12.90;99.90;;;;;;5010901;28;20087;-65
2021/01/03 01:20:25;;;;;;;24.60;7.88;;;12.90;99.90;;;;;;5011138;28;20050;-65
2021/01/03 01:22:53;;;;;;;19.15;6.43;;;12.90;99.90;;;;;;5010920;28;20046;-66
2021/01/03 01:25:25;;;;;;;16.50;7.00;;;12.90;99.90;;;;;;5003940;28;20058;-65
2021/01/03 01:27:54;;;;;;;21.77;6.82;;;12.90;99.90;;;;;;4992807;28;20141;-65
2021/01/03 01:30:24;;;;;;;28.00;9.20;;;13.00;99.90;;;;;;4995311;28;20414;-65
2021/01/03 01:32:52;;;;;;;27.42;9.43;;;13.00;99.90;;;;;;4990589;28;20415;-65
2021/01/03 01:35:24;;;;;;;23.35;9.00;;;12.90;99.90;;;;;;4989609;28;20058;-65
2021/01/03 01:37:53;;;;;;;21.45;9.13;;;12.90;99.90;;;;;;4990033;28;20054;-65
2021/01/03 01:40:25;;;;;;;24.70;8.20;;;12.90;99.90;;;;;;4990974;28;20067;-65
2021/01/03 01:42:53;;;;;;;25.40;6.97;;;13.00;99.90;;;;;;4991129;28;20107;-65
2021/01/03 01:45:31;;;;;;;12.15;4.53;;;12.90;99.90;;;;;;4990650;28;20572;-65
2021/01/03 01:48:07;;;;;;;12.85;4.20;;;12.90;99.90;;;;;;4990954;28;20399;-65
2021/01/03 01:50:39;;;;;;;;;;;12.90;99.90;;;;;;4990135;28;20050;-65
2021/01/03 01:53:11;;;;;;;12.00;4.07;;;12.80;99.90;;;;;;4990998;28;19971;-65
2021/01/03 01:55:45;;;;;;;22.42;4.05;;;12.80;99.90;;;;;;4999950;28;20058;-65
2021/01/03 01:58:19;;;;;;;19.85;4.85;;;12.80;99.90;;;;;;5010355;28;20126;-65
2021/01/03 02:00:54;;;;;;;18.13;3.13;;;12.70;99.90;;;;;;5010355;28;20052;-65
2021/01/03 02:03:57;;;;;;;16.77;5.55;;;12.60;99.90;;;;;;5010366;28;20422;-65
2021/01/03 02:06:43;;;;;;;10.35;3.80;;;12.60;99.90;;;;;;5017849;28;20060;-65
2021/01/03 02:09:18;;;;;;;;;;;12.50;99.90;;;;;;5009491;28;20086;-65
2021/01/03 02:11:46;;;;;;;14.40;4.68;;;12.50;99.90;;;;;;5010348;28;20301;-65
2021/01/03 02:14:14;;;;;;;15.02;3.33;;;12.40;99.90;;;;;;5009192;28;20054;-65
2021/01/03 02:16:41;;;;;;;13.95;3.78;;;12.40;99.90;;;;;;5009735;28;20082;-66
2021/01/03 02:19:20;;;;;;;16.38;4.63;;;12.40;99.90;;;;;;5010082;28;20608;-65
2021/01/03 02:22:02;;;;;;;19.45;5.22;;;12.40;99.90;;;;;;5009041;28;20054;-65
2021/01/03 02:24:42;;;;;;;21.33;4.40;;;12.40;99.90;;;;;;5008092;28;20064;-65
2021/01/03 02:27:27;;;;;;;12.43;2.92;;;12.40;99.90;;;;;;4989164;28;20135;-66
2021/01/03 02:29:57;;;;;;;13.23;4.38;;;12.30;99.90;;;;;;4990389;28;20050;-66
2021/01/03 02:32:25;;;;;;;19.27;5.03;;;12.30;99.90;;;;;;4990461;28;20054;-65
2021/01/03 02:34:53;;;;;;;7.78;3.33;;;12.30;99.90;;;;;;4989720;28;20133;-65
2021/01/03 02:37:24;;;;;;;8.48;2.70;;;12.30;99.90;;;;;;4989089;28;20418;-65
2021/01/03 02:40:04;;;;;;;15.18;4.10;;;12.30;99.90;;;;;;4990447;28;20055;-65
2021/01/03 02:42:34;;;;;;;13.63;2.38;;;12.30;99.90;;;;;;4990486;28;20046;-66
2021/01/03 02:45:07;;;;;;;18.15;3.15;;;12.30;99.90;;;;;;4992733;28;20077;-65
2021/01/03 02:47:37;;;;;;;14.35;2.17;;;12.40;99.90;;;;;;4993639;28;20457;-65
2021/01/03 02:50:08;;;;;;;10.70;3.05;;;12.40;99.90;;;;;;4993589;28;20133;-66
2021/01/03 02:52:40;;;;;;;17.35;2.83;;;12.50;99.90;;;;;;4993661;28;20534;-65
2021/01/03 02:55:09;;;;;;;17.23;3.13;;;12.50;99.90;;;;;;4999157;28;20058;-65
2021/01/03 02:57:37;;;;;;;19.48;2.33;;;12.50;99.90;;;;;;5015120;28;20192;-65
2021/01/03 03:00:13;;;;;;;13.43;2.45;;;12.50;99.90;;;;;;5016279;28;20064;-66
2021/01/03 03:02:40;;;;;;;23.47;2.80;;;12.50;99.90;;;;;;5013074;28;20065;-65
2021/01/03 03:05:09;;;;;;;9.52;2.67;;;12.50;99.90;;;;;;5012326;28;20338;-66
2021/01/03 03:07:36;;;;;;;16.45;2.22;;;12.40;99.90;;;;;;5013202;28;20050;-65
2021/01/03 03:10:05;;;;;;;12.25;2.72;;;12.40;99.90;;;;;;5013376;28;20480;-66
2021/01/03 03:12:33;;;;;;;11.55;2.10;;;12.40;99.90;;;;;;5017990;28;20042;-64
2021/01/03 03:15:04;;;;;;;13.07;2.40;;;12.40;99.90;;;;;;5012526;28;20046;-64
2021/01/03 03:17:35;;;;;;;16.00;2.92;;;12.40;99.90;;;;;;4995647;28;20054;-65
2021/01/03 03:20:08;;;;;;;12.05;2.05;;;12.40;99.90;;;;;;4995654;28;20054;-65
2021/01/03 03:22:36;;;;;;;22.98;3.45;;;12.40;99.90;;;;;;5012761;28;20058;-65
2021/01/03 03:25:06;;;;;;;9.38;3.40;;;12.30;99.90;;;;;;5004047;28;20053;-65
2021/01/03 03:27:33;;;;;;;12.35;2.22;;;12.40;99.90;;;;;;4996208;28;20072;-65
2021/01/03 03:30:03;;;;;;;17.42;2.67;;;12.40;99.90;;;;;;5012584;28;20513;-65
2021/01/03 03:32:31;;;;;;;12.93;2.30;;;12.30;99.90;;;;;;5012170;28;20058;-66
2021/01/03 03:34:59;;;;;;;12.43;2.00;;;12.30;99.90;;;;;;5012426;28;20053;-65
2021/01/03 03:37:27;;;;;;;16.85;2.13;;;12.30;99.90;;;;;;5012337;28;20068;-65
2021/01/03 03:39:55;;;;;;;12.32;2.65;;;12.30;99.90;;;;;;5012248;28;20073;-65
2021/01/03 03:42:22;;;;;;;18.83;2.13;;;12.20;99.90;;;;;;5012356;28;20070;-65
2021/01/03 03:44:50;;;;;;;6.15;1.20;;;12.20;99.90;;;;;;5011936;28;20075;-65
2021/01/03 03:47:18;;;;;;;11.20;2.55;;;12.20;99.90;;;;;;5012181;28;20057;-65
2021/01/03 03:49:46;;;;;;;14.02;2.65;;;12.20;99.90;;;;;;5011078;28;20064;-65
2021/01/03 03:52:13;;;;;;;12.25;1.92;;;12.20;99.90;;;;;;5012131;28;20118;-65
2021/01/03 03:54:42;;;;;;;10.30;1.92;;;12.20;99.90;;;;;;5005845;28;20061;-65
2021/01/03 03:57:10;;;;;;;21.80;2.55;;;12.20;99.90;;;;;;4992538;28;20051;-66
2021/01/03 03:59:39;;;;;;;15.13;1.13;;;12.20;99.90;;;;;;4992468;28;20061;-65
2021/01/03 04:02:07;;;;;;;11.45;2.50;;;12.20;99.90;;;;;;4992345;28;20047;-65
2021/01/03 04:04:36;;;;;;;12.52;1.85;;;12.20;99.90;;;;;;4992081;28;20063;-65
2021/01/03 04:07:05;;;;;;;7.30;1.50;;;12.10;99.90;;;;;;4991330;28;20176;-65
2021/01/03 04:09:32;;;;;;;18.23;2.42;;;12.10;99.90;;;;;;4992261;28;20099;-65
2021/01/03 04:12:00;;;;;;;12.23;3.05;;;12.10;99.90;;;;;;4992316;28;20084;-65
2021/01/03 04:14:28;;;;;;;17.52;2.85;;;12.00;99.90;;;;;;4992161;28;20053;-65
2021/01/03 04:17:01;;;;;;;8.60;1.10;;;12.10;99.90;;;;;;4992306;28;20054;-65
2021/01/03 04:19:29;;;;;;;13.50;1.35;;;12.00;99.90;;;;;;4992257;28;20046;-65
2021/01/03 04:22:02;;;;;;;13.05;1.58;;;12.00;99.90;;;;;;5007299;28;20389;-65
2021/01/03 04:24:31;;;;;;;9.73;1.88;;;12.00;99.90;;;;;;4996739;28;20058;-65
2021/01/03 04:27:07;;;;;;;11.40;2.22;;;12.00;99.90;;;;;;5010229;28;20058;-65
2021/01/03 04:29:36;;;;;;;17.67;3.08;;;12.00;99.90;;;;;;5011681;28;20050;-65
2021/01/03 04:32:07;;;;;;;12.60;1.58;;;11.90;99.90;;;;;;5010405;28;20096;-65
2021/01/03 04:34:37;;;;;;;3.92;1.30;;;11.90;99.90;;;;;;5011125;28;20050;-65
2021/01/03 04:37:06;;;;;;;6.65;1.00;;;11.90;99.90;;;;;;5011711;28;20076;-65
2021/01/03 04:39:34;;;;;;;14.00;1.65;;;11.80;99.90;;;;;;5011551;28;20091;-65
2021/01/03 04:42:04;;;;;;;19.48;2.45;;;11.80;99.90;;;;;;5011378;28;20515;-65
2021/01/03 04:44:37;;;;;;;8.65;1.75;;;11.80;99.90;;;;;;5011052;28;20061;-65
2021/01/03 04:47:10;;;;;;;12.75;1.95;;;11.80;99.90;;;;;;5011449;28;20061;-65
2021/01/03 04:49:43;;;;;;;9.55;1.83;;;11.70;99.90;;;;;;5011465;28;20054;-65
2021/01/03 04:52:32;;;;;;;19.38;3.03;;;11.70;99.90;;;;;;5011212;28;20095;-65
2021/01/03 04:55:26;;;;;;;12.98;1.70;;;11.70;99.90;;;;;;5012682;28;20468;-65
2021/01/03 04:58:12;;;;;;;18.65;2.47;;;11.70;99.90;;;;;;5010159;28;20427;-65
2021/01/03 05:00:58;;;;;;;17.50;3.08;;;11.60;99.90;;;;;;5010134;28;20141;-65
2021/01/03 05:03:41;;;;;;;12.98;2.78;;;11.60;99.90;;;;;;5012405;28;20136;-65
2021/01/03 05:06:18;;;;;;;11.82;1.63;;;11.60;99.90;;;;;;5011633;28;20058;-65
2021/01/03 05:08:56;;;;;;;11.65;1.60;;;11.60;99.90;;;;;;5011084;28;20054;-65
2021/01/03 05:11:38;;;;;;;10.73;1.65;;;11.60;99.90;;;;;;5009878;28;20176;-65
2021/01/03 05:14:31;;;;;;;19.65;1.52;;;11.60;99.90;;;;;;5011016;28;20414;-65
2021/01/03 05:16:59;;;;;;;6.57;1.08;;;11.60;99.90;;;;;;5009794;28;20395;-65
2021/01/03 05:19:27;;;;;;;13.25;3.25;;;11.60;99.90;;;;;;5010946;28;20080;-65
2021/01/03 05:21:56;;;;;;;10.82;2.90;;;11.50;99.90;;;;;;5011199;28;20567;-65
2021/01/03 05:24:26;;;;;;;11.82;2.20;;;11.50;99.90;;;;;;5003459;28;20061;-65
2021/01/03 05:26:55;;;;;;;14.88;2.03;;;11.50;99.90;;;;;;4991208;28;20062;-65
2021/01/03 05:29:26;;;;;;;11.10;1.90;;;11.50;99.90;;;;;;4974007;28;20050;-65
2021/01/03 05:32:03;;;;;;;11.43;1.60;;;11.40;99.90;;;;;;4991248;28;20049;-65
2021/01/03 05:34:42;;;;;;;9.98;1.13;;;11.50;99.90;;;;;;4990608;28;20058;-65
2021/01/03 05:37:18;;;;;;;19.00;2.33;;;11.40;99.90;;;;;;4990229;28;20411;-65
2021/01/03 05:39:47;;;;;;;10.32;1.67;;;11.40;99.90;;;;;;4989973;28;20091;-65
2021/01/03 05:42:19;;;;;;;11.50;2.28;;;11.40;99.90;;;;;;4990966;28;20056;-65
2021/01/03 05:44:57;;;;;;;13.75;2.05;;;11.40;99.90;;;;;;4990620;28;20420;-65
2021/01/03 05:47:37;;;;;;;22.42;2.00;;;11.30;99.90;;;;;;4990947;28;20138;-65
2021/01/03 05:50:14;;;;;;;10.70;1.98;;;11.30;99.90;;;;;;4989790;28;20450;-65
2021/01/03 05:53:37;;;;;;;13.98;1.85;;;11.30;99.90;;;;;;4989786;28;20532;-65
2021/01/03 05:56:20;;;;;;;17.52;2.53;;;11.30;99.90;;;;;;4949398;29;20055;-65
2021/01/03 05:58:54;;;;;;;14.90;1.88;;;11.30;99.90;;;;;;4949808;29;20479;-64
2021/01/03 06:01:26;;;;;;;11.10;2.90;;;11.30;99.90;;;;;;4976610;28;20062;-64
2021/01/03 06:04:10;;;;;;;11.98;1.42;;;11.30;99.90;;;;;;4990842;28;20133;-65
2021/01/03 06:06:57;;;;;;;25.55;2.58;;;11.30;99.90;;;;;;4990224;28;20050;-65
2021/01/03 06:09:51;;;;;;;;;;;11.30;99.90;;;;;;4991040;28;20137;-65
2021/01/03 06:12:20;;;;;;;23.98;1.95;;;11.30;99.90;;;;;;4988171;28;19928;-66
2021/01/03 06:14:52;;;;;;;9.20;1.15;;;11.30;99.90;;;;;;5004908;28;20504;-65
2021/01/03 06:17:35;;;;;;;12.40;0.90;;;11.40;99.90;;;;;;4991132;28;20096;-65
2021/01/03 06:20:17;;;;;;;14.18;1.77;;;11.40;99.90;;;;;;4994009;28;20054;-65
2021/01/03 06:22:47;;;;;;;10.80;1.40;;;11.40;99.90;;;;;;4993981;28;20054;-65
2021/01/03 06:25:30;;;;;;;7.45;1.63;;;11.50;99.90;;;;;;5008515;28;20530;-65
2021/01/03 06:28:16;;;;;;;7.80;2.17;;;11.40;99.90;;;;;;4993930;28;20050;-65
2021/01/03 06:31:06;;;;;;;4.57;1.02;;;11.50;99.90;;;;;;4976776;28;20051;-65
2021/01/03 06:33:54;;;;;;;20.65;2.08;;;11.50;99.90;;;;;;4993935;28;20042;-65
2021/01/03 06:36:50;;;;;;;11.63;1.38;;;11.50;99.90;;;;;;4996279;28;20104;-65
2021/01/03 06:39:47;;;;;;;19.07;1.57;;;11.60;99.90;;;;;;5000440;28;20081;-66
2021/01/03 06:42:51;;;;;;;23.20;3.50;;;11.60;99.90;;;;;;4993224;28;20491;-66
2021/01/03 06:45:27;;;;;;;23.40;2.88;;;11.70;99.90;;;;;;4994911;28;20556;-66
2021/01/03 06:48:21;;;;;;;12.30;2.10;;;11.70;99.90;;;;;;4993573;28;20125;-66
2021/01/03 06:51:06;;;;;;;19.77;2.03;;;11.80;99.90;;;;;;4992416;28;20061;-66
2021/01/03 06:54:11;;;;;;;11.90;1.70;;;11.80;99.90;;;;;;4992789;28;20050;-65
2021/01/03 06:57:02;;;;;;;20.17;2.22;;;11.90;99.90;;;;;;4953905;28;20043;-65
2021/01/03 07:00:07;;;;;;;15.35;1.83;;;12.00;99.90;;;;;;4954426;28;20479;-66
2021/01/03 07:02:40;;;;;;;19.08;3.67;;;12.10;99.90;;;;;;4980202;28;20061;-66
2021/01/03 07:05:09;;;;;;;38.22;4.18;;;12.20;99.90;;;;;;4978774;28;20050;-65
2021/01/03 07:07:41;;;;;;;19.80;2.30;;;12.30;99.90;;;;;;4990104;28;20061;-65
2021/01/03 07:10:20;;;;;;;16.15;3.50;;;12.40;99.90;;;;;;5002546;28;20051;-66
2021/01/03 07:12:50;;;;;;;25.27;4.60;;;12.50;99.90;;;;;;4990802;28;20068;-67
2021/01/03 07:15:24;;;;;;;11.88;2.47;;;12.60;99.90;;;;;;4947782;28;20047;-66
2021/01/03 07:17:51;;;;;;;15.02;1.77;;;12.60;99.90;;;;;;4956860;28;20056;-67
2021/01/03 07:20:38;;;;;;;16.48;2.65;;;12.70;99.90;;;;;;4956914;28;20067;-67
2021/01/03 07:23:13;;;;;;;14.10;2.08;;;12.80;99.90;;;;;;4949915;28;20526;-65
2021/01/03 07:26:07;;;;;;;19.83;2.13;;;12.90;99.90;;;;;;4959165;28;20054;-66
2021/01/03 07:28:36;;;;;;;18.98;2.47;;;13.00;99.90;;;;;;4975072;28;20100;-67
2021/01/03 07:31:34;;;;;;;18.67;2.03;;;13.10;99.90;;;;;;4973786;28;20053;-67
2021/01/03 07:34:17;;;;;;;11.27;1.60;;;13.20;99.90;;;;;;4979865;28;20118;-68
2021/01/03 07:36:45;;;;;;;12.75;3.33;;;13.30;99.90;;;;;;4977866;28;20062;-67
2021/01/03 07:39:22;;;;;;;26.30;10.05;;;13.40;99.90;;;;;;4973727;28;20055;-67
2021/01/03 07:42:11;;;;;;;138.60;68.00;;;13.50;99.90;;;;;;4974067;28;20050;-67
2021/01/03 07:44:39;;;;;;;30.58;13.95;;;13.60;99.90;;;;;;4966516;28;20063;-67
2021/01/03 07:47:07;;;;;;;22.42;8.05;;;13.70;99.90;;;;;;4956754;28;20085;-68
2021/01/03 07:49:36;;;;;;;15.18;4.80;;;13.80;99.90;;;;;;4969258;28;20043;-67
2021/01/03 07:52:16;;;;;;;16.77;3.42;;;13.90;99.90;;;;;;4951373;28;20054;-68
2021/01/03 07:54:55;;;;;;;16.67;3.17;;;14.00;99.90;;;;;;4969944;28;20145;-67
2021/01/03 07:57:28;;;;;;;9.40;2.97;;;14.10;99.90;;;;;;5009061;28;20106;-68
2021/01/03 07:59:58;;;;;;;14.13;5.13;;;14.20;99.90;;;;;;4992031;28;20411;-69
2021/01/03 08:02:30;;;;;;;21.60;5.00;;;14.30;99.90;;;;;;5000965;28;20062;-68
2021/01/03 08:05:01;;;;;;;34.13;4.82;;;14.40;99.90;;;;;;5008850;28;20042;-69
2021/01/03 08:07:30;;;;;;;23.17;3.72;;;14.40;99.90;;;;;;5000531;28;20161;-68
2021/01/03 08:10:10;;;;;;;18.17;4.78;;;14.60;99.90;;;;;;4997096;28;20073;-68
2021/01/03 08:12:42;;;;;;;12.82;3.20;;;14.70;99.90;;;;;;5022629;28;20422;-70
2021/01/03 08:15:26;;;;;;;19.23;4.53;;;14.80;99.90;;;;;;5010039;28;20046;-68
2021/01/03 08:18:02;;;;;;;22.52;6.32;;;14.90;99.90;;;;;;5017662;28;20048;-69
2021/01/03 08:20:29;;;;;;;;;;;15.00;99.90;;;;;;5034769;28;20122;-68
2021/01/03 08:23:14;;;;;;;21.35;3.55;;;15.10;99.90;;;;;;5024953;28;19967;-68
2021/01/03 08:25:42;;;;;;;16.95;3.45;;;15.20;99.90;;;;;;5024923;28;20418;-68
2021/01/03 08:28:21;;;;;;;17.13;2.65;;;15.30;99.90;;;;;;5051329;28;20044;-68
2021/01/03 08:30:50;;;;;;;18.90;3.20;;;15.30;99.90;;;;;;5113614;28;20463;-68
2021/01/03 08:33:36;;;;;;;17.58;3.90;;;15.40;99.90;;;;;;5113814;28;20096;-68
2021/01/03 08:36:16;;;;;;;11.80;2.67;;;15.50;99.90;;;;;;5112787;28;20058;-68
2021/01/03 08:38:45;;;;;;;16.20;3.67;;;15.60;99.90;;;;;;5114731;28;20491;-68
2021/01/03 08:41:19;;;;;;;14.48;2.17;;;15.60;99.90;;;;;;5113510;28;20043;-68
2021/01/03 08:43:51;;;;;;;21.83;3.78;;;15.70;99.90;;;;;;5009073;28;20136;-68
2021/01/03 08:46:25;;;;;;;10.00;2.30;;;15.80;99.90;;;;;;5010030;28;20068;-68
2021/01/03 08:49:05;;;;;;;10.80;4.50;;;15.80;99.90;;;;;;5010290;28;20050;-68
2021/01/03 08:51:33;;;;;;;15.45;3.22;;;15.90;99.90;;;;;;5009919;28;20519;-68
2021/01/03 08:54:06;;;;;;;10.68;2.22;;;16.00;99.90;;;;;;5010913;28;20494;-68
2021/01/03 08:56:46;;;;;;;12.02;2.97;;;16.00;99.90;;;;;;5010560;28;20046;-68
2021/01/03 08:59:17;;;;;;;14.52;2.17;;;16.20;99.90;;;;;;5011014;28;20061;-68
2021/01/03 09:01:45;;;;;;;15.52;2.72;;;16.20;99.90;;;;;;5010962;28;20065;-68
2021/01/03 09:04:19;;;;;;;17.15;2.45;;;16.10;99.90;;;;;;5010573;28;20057;-68
2021/01/03 09:06:53;;;;;;;;;;;16.10;99.90;;;;;;5011312;28;20050;-68
2021/01/03 09:09:26;;;;;;;29.13;3.55;;;16.10;99.90;;;;;;5010839;28;20026;-68
2021/01/03 09:11:53;;;;;;;12.18;2.45;;;16.20;99.90;;;;;;5007404;28;20038;-69
2021/01/03 09:14:42;;;;;;;12.73;2.75;;;16.20;99.90;;;;;;4998980;28;20053;-69
2021/01/03 09:17:27;;;;;;;13.02;1.83;;;16.20;99.90;;;;;;4993665;28;20058;-69
2021/01/03 09:19:58;;;;;;;19.80;3.58;;;16.20;99.90;;;;;;4990995;28;20054;-69
2021/01/03 09:22:37;;;;;;;10.15;1.23;;;16.40;99.90;;;;;;4991081;28;20054;-69
2021/01/03 09:25:08;;;;;;;9.65;1.60;;;16.30;99.90;;;;;;4990684;28;20058;-69
2021/01/03 09:27:39;;;;;;;11.00;2.17;;;16.20;99.90;;;;;;4990964;28;20205;-69
2021/01/03 09:30:19;;;;;;;13.13;3.40;;;16.20;99.90;;;;;;4990533;28;20046;-68
2021/01/03 09:32:54;;;;;;;20.23;3.67;;;16.30;99.90;;;;;;4990966;28;20046;-68
2021/01/03 09:35:59;;;;;;;13.60;2.08;;;16.50;99.90;;;;;;4989309;28;20461;-69
2021/01/03 09:38:34;;;;;;;15.80;2.30;;;16.60;99.90;;;;;;4990699;28;20066;-69
2021/01/03 09:41:16;;;;;;;18.75;2.53;;;16.60;99.90;;;;;;4989605;28;20054;-69
2021/01/03 09:44:01;;;;;;;14.93;3.67;;;16.70;99.90;;;;;;4989618;28;20058;-69
2021/01/03 09:46:34;;;;;;;11.50;2.88;;;16.70;99.90;;;;;;4990209;28;20054;-69
2021/01/03 09:49:37;;;;;;;11.70;2.88;;;16.70;99.90;;;;;;4990631;28;20499;-69
2021/01/03 09:52:08;;;;;;;25.63;2.80;;;16.70;99.90;;;;;;4982477;28;20046;-69
2021/01/03 09:55:08;;;;;;;14.15;1.80;;;16.80;99.90;;;;;;4989971;28;20100;-69
2021/01/03 09:57:47;;;;;;;14.32;2.88;;;16.90;99.90;;;;;;4989310;28;20141;-69
2021/01/03 10:00:23;;;;;;;16.40;2.28;;;17.20;99.90;;;;;;4990249;28;20054;-69
2021/01/03 10:02:51;;;;;;;;;;;17.40;99.90;;;;;;4991363;28;20089;-69
2021/01/03 10:05:23;;;;;;;14.80;4.18;;;17.40;99.90;;;;;;4990266;28;19921;-69
2021/01/03 10:08:03;;;;;;;5.45;1.92;;;17.60;99.90;;;;;;5004317;28;20538;-69
2021/01/03 10:10:58;;;;;;;14.35;3.25;;;17.40;99.90;;;;;;4992498;28;20073;-69
2021/01/03 10:13:29;;;;;;;24.33;3.67;;;17.40;99.90;;;;;;5009750;28;20054;-69
2021/01/03 10:15:58;;;;;;;25.67;4.65;;;17.30;99.90;;;;;;5009425;28;20077;-69
2021/01/03 10:18:33;;;;;;;10.45;2.67;;;17.30;99.90;;;;;;5009760;28;20400;-68
2021/01/03 10:21:18;;;;;;;18.53;2.77;;;17.30;99.90;;;;;;5009919;28;20498;-69
2021/01/03 10:23:55;;;;;;;16.08;2.50;;;17.30;99.90;;;;;;5009897;28;20288;-69
2021/01/03 10:26:34;;;;;;;13.73;4.18;;;17.40;99.90;;;;;;5009288;28;20126;-68
2021/01/03 10:29:03;;;;;;;9.65;2.67;;;17.40;99.90;;;;;;5008875;28;20054;-69
2021/01/03 10:31:52;;;;;;;11.85;2.08;;;17.30;99.90;;;;;;5008678;28;20050;-70
2021/01/03 10:34:24;;;;;;;18.42;3.55;;;17.30;99.90;;;;;;5009529;28;20537;-69
2021/01/03 10:36:59;;;;;;;17.13;3.72;;;17.00;99.90;;;;;;5002451;28;20054;-69
2021/01/03 10:39:30;;;;;;;31.52;6.88;;;17.00;99.90;;;;;;4990657;28;20081;-69
2021/01/03 10:42:01;;;;;;;14.35;4.95;;;16.80;99.90;;;;;;4990340;28;20058;-68
2021/01/03 10:44:29;;;;;;;21.10;3.50;;;16.70;99.90;;;;;;4989739;28;20054;-68
2021/01/03 10:46:56;;;;;;;13.93;1.73;;;16.70;99.90;;;;;;4990348;28;20511;-69
2021/01/03 10:49:25;;;;;;;11.50;3.05;;;16.60;99.90;;;;;;4990138;28;20050;-69
2021/01/03 10:51:53;;;;;;;13.38;3.45;;;16.50;99.90;;;;;;4993094;28;20061;-67
2021/01/03 10:54:28;;;;;;;17.70;2.45;;;16.50;99.90;;;;;;5007825;28;20127;-68
2021/01/03 10:57:06;;;;;;;9.55;2.63;;;16.50;99.90;;;;;;4989951;28;20058;-69
2021/01/03 10:59:33;;;;;;;10.23;2.88;;;16.50;99.90;;;;;;4990182;28;20526;-68
2021/01/03 11:02:02;;;;;;;17.33;3.10;;;16.60;99.90;;;;;;4990091;28;20061;-69
2021/01/03 11:04:30;;;;;;;21.95;4.25;;;16.60;99.90;;;;;;4989000;28;20050;-69
2021/01/03 11:06:58;;;;;;;10.52;2.78;;;16.70;99.90;;;;;;4993376;28;20141;-66
2021/01/03 11:09:29;;;;;;;19.70;3.65;;;16.70;99.90;;;;;;4993564;28;20491;-69
2021/01/03 11:12:05;;;;;;;16.92;4.13;;;16.70;99.90;;;;;;4992134;28;20082;-68
2021/01/03 11:14:37;;;;;;;18.27;3.85;;;16.80;99.90;;;;;;4992740;28;20058;-70
2021/01/03 11:17:09;;;;;;;17.73;2.42;;;17.00;99.90;;;;;;4992281;28;20051;-71
2021/01/03 11:19:38;;;;;;;9.65;2.85;;;17.30;99.90;;;;;;4992673;28;20050;-66
2021/01/03 11:22:09;;;;;;;15.07;3.33;;;17.60;99.90;;;;;;4993031;28;20131;-66
2021/01/03 11:24:39;;;;;;;19.58;9.48;;;17.60;99.90;;;;;;5026806;28;20057;-68
2021/01/03 11:27:10;;;;;;;26.58;8.23;;;17.70;99.90;;;;;;5011384;28;20050;-69
2021/01/03 11:29:50;;;;;;;23.35;4.45;;;17.70;99.90;;;;;;5006186;28;20422;-66
2021/01/03 11:32:22;;;;;;;29.23;6.85;;;17.50;99.90;;;;;;5012151;28;20163;-65
2021/01/03 11:34:50;;;;;;;11.88;3.10;;;17.50;99.90;;;;;;5011921;28;20058;-65
2021/01/03 11:37:21;;;;;;;18.20;3.05;;;17.50;99.90;;;;;;5012367;28;20061;-66
2021/01/03 11:39:50;;;;;;;19.42;3.53;;;17.50;99.90;;;;;;5011553;28;20054;-65
2021/01/03 11:42:28;;;;;;;10.60;3.03;;;17.60;99.90;;;;;;5012241;28;20073;-65
2021/01/03 11:44:56;;;;;;;12.02;2.38;;;17.70;99.90;;;;;;5011730;28;20050;-67
2021/01/03 11:47:25;;;;;;;20.25;5.05;;;17.50;99.90;;;;;;5011431;28;20103;-66
2021/01/03 11:49:52;;;;;;;19.50;3.97;;;17.50;99.90;;;;;;5009848;28;20046;-66
2021/01/03 11:52:30;;;;;;;19.20;4.77;;;17.50;99.90;;;;;;5010725;28;20490;-66
2021/01/03 11:54:59;;;;;;;17.38;4.13;;;17.30;99.90;;;;;;5012164;28;20057;-64
2021/01/03 11:57:27;;;;;;;17.85;3.42;;;17.20;99.90;;;;;;5027633;28;20042;-66
2021/01/03 11:59:57;;;;;;;21.70;3.20;;;17.20;99.90;;;;;;5017214;28;20253;-65
2021/01/03 12:02:28;;;;;;;16.85;3.38;;;17.40;99.90;;;;;;5011145;28;20522;-66
2021/01/03 12:04:56;;;;;;;11.18;3.13;;;17.50;99.90;;;;;;5011178;28;20415;-67
2021/01/03 12:07:26;;;;;;;10.68;2.13;;;17.60;99.90;;;;;;5011082;28;20065;-66
2021/01/03 12:09:54;;;;;;;7.35;1.73;;;17.70;99.90;;;;;;5012424;28;20143;-66
2021/01/03 12:12:22;;;;;;;12.15;2.83;;;17.70;99.90;;;;;;5011587;28;20049;-66
2021/01/03 12:14:50;;;;;;;13.93;3.35;;;17.60;99.90;;;;;;5011475;28;20502;-66
2021/01/03 12:17:22;;;;;;;18.70;5.13;;;17.60;99.90;;;;;;5011705;28;20054;-66
2021/01/03 12:19:51;;;;;;;11.45;1.77;;;17.60;99.90;;;;;;5011040;28;20084;-66
2021/01/03 12:22:19;;;;;;;9.73;2.45;;;17.40;99.90;;;;;;5011497;28;20532;-66
2021/01/03 12:24:47;;;;;;;19.05;3.28;;;17.40;99.90;;;;;;5011098;28;20085;-66
2021/01/03 12:27:19;;;;;;;18.83;3.13;;;17.30;99.90;;;;;;5010726;28;20063;-66
2021/01/03 12:29:48;;;;;;;21.00;3.25;;;17.30;99.90;;;;;;5011675;28;20050;-66
2021/01/03 12:32:16;;;;;;;20.52;3.30;;;17.30;99.90;;;;;;5011677;28;20054;-63
2021/01/03 12:34:44;;;;;;;12.15;3.72;;;17.30;99.90;;;;;;5011230;28;20184;-65
2021/01/03 12:37:17;;;;;;;15.13;5.15;;;17.20;99.90;;;;;;5011493;28;20528;-67
2021/01/03 12:39:46;;;;;;;9.43;2.72;;;17.30;99.90;;;;;;5010538;28;20050;-66
2021/01/03 12:42:21;;;;;;;13.73;2.60;;;17.30;99.90;;;;;;5011507;28;20050;-65
2021/01/03 12:44:49;;;;;;;15.32;2.92;;;17.20;99.90;;;;;;5011133;28;20061;-65
2021/01/03 12:47:18;;;;;;;13.43;2.20;;;17.20;99.90;;;;;;5011322;28;20046;-66
2021/01/03 12:49:46;;;;;;;12.38;2.38;;;17.30;99.90;;;;;;5008017;28;20050;-66
2021/01/03 12:52:15;;;;;;;18.85;5.40;;;17.10;99.90;;;;;;4991727;28;20050;-65
2021/01/03 12:54:42;;;;;;;19.13;5.07;;;17.20;99.90;;;;;;4992939;28;20483;-65
2021/01/03 12:57:10;;;;;;;19.25;5.13;;;17.30;99.90;;;;;;4990616;28;20046;-66
2021/01/03 12:59:38;;;;;;;14.93;4.85;;;17.30;99.90;;;;;;4991680;28;20054;-66
2021/01/03 13:02:05;;;;;;;23.50;6.07;;;17.30;99.90;;;;;;4991682;28;20133;-66
2021/01/03 13:04:53;;;;;;;21.42;3.15;;;17.10;99.90;;;;;;4991161;28;20047;-66
2021/01/03 13:07:21;;;;;;;10.65;2.58;;;16.90;99.90;;;;;;4991475;28;20085;-66
2021/01/03 13:09:49;;;;;;;14.10;1.70;;;16.90;99.90;;;;;;4991462;28;20074;-65
2021/01/03 13:12:16;;;;;;;9.40;2.75;;;16.70;99.90;;;;;;4990288;28;20435;-66